sensor_id;sensor_type;location;lat;lon;timestamp;pressure;altitude;pressure_sealevel;temperature
53512;BMP280;39392;52.832;13.816;2023-03-01T00:00:47;102964.28;;;16.50
53512;BMP280;39392;52.832;13.816;2023-03-01T00:03:14;102967.09;;;16.49
53512;BMP280;39392;52.832;13.816;2023-03-01T00:05:44;102979.78;;;16.48
53512;BMP280;39392;52.832;13.816;2023-03-01T00:08:11;102981.50;;;16.49
53512;BMP280;39392;52.832;13.816;2023-03-01T00:10:37;102987.03;;;16.48
53512;BMP280;39392;52.832;13.816;2023-03-01T00:13:04;102991.59;;;16.47
53512;BMP280;39392;52.832;13.816;2023-03-01T00:15:31;102983.53;;;16.46
53512;BMP280;39392;52.832;13.816;2023-03-01T00:17:58;102982.69;;;16.45
53512;BMP280;39392;52.832;13.816;2023-03-01T00:20:24;102984.53;;;16.44
53512;BMP280;39392;52.832;13.816;2023-03-01T00:22:51;102987.34;;;16.43
53512;BMP280;39392;52.832;13.816;2023-03-01T00:25:17;102990.81;;;16.45
53512;BMP280;39392;52.832;13.816;2023-03-01T00:27:44;102979.13;;;16.44
53512;BMP280;39392;52.832;13.816;2023-03-01T00:30:10;102980.09;;;16.43
53512;BMP280;39392;52.832;13.816;2023-03-01T00:32:37;102985.59;;;16.42
53512;BMP280;39392;52.832;13.816;2023-03-01T00:35:03;102992.75;;;16.43
53512;BMP280;39392;52.832;13.816;2023-03-01T00:37:30;102991.00;;;16.42
53512;BMP280;39392;52.832;13.816;2023-03-01T00:39:56;102983.88;;;16.41
53512;BMP280;39392;52.832;13.816;2023-03-01T00:42:22;102984.72;;;16.41
53512;BMP280;39392;52.832;13.816;2023-03-01T00:44:49;102974.88;;;16.40
53512;BMP280;39392;52.832;13.816;2023-03-01T00:47:16;102979.50;;;16.38
53512;BMP280;39392;52.832;13.816;2023-03-01T00:49:42;102969.66;;;16.37
53512;BMP280;39392;52.832;13.816;2023-03-01T00:52:08;102969.78;;;16.36
53512;BMP280;39392;52.832;13.816;2023-03-01T00:54:35;102963.50;;;16.35
53512;BMP280;39392;52.832;13.816;2023-03-01T00:57:01;102953.56;;;16.36
53512;BMP280;39392;52.832;13.816;2023-03-01T00:59:28;102945.44;;;16.36
53512;BMP280;39392;52.832;13.816;2023-03-01T01:01:54;102949.13;;;16.35
53512;BMP280;39392;52.832;13.816;2023-03-01T01:04:21;102948.22;;;16.34
53512;BMP280;39392;52.832;13.816;2023-03-01T01:06:47;102934.69;;;16.34
53512;BMP280;39392;52.832;13.816;2023-03-01T01:09:14;102931.25;;;16.32
53512;BMP280;39392;52.832;13.816;2023-03-01T01:11:45;102929.28;;;16.34
53512;BMP280;39392;52.832;13.816;2023-03-01T01:14:12;102923.00;;;16.34
53512;BMP280;39392;52.832;13.816;2023-03-01T01:16:38;102923.97;;;16.33
53512;BMP280;39392;52.832;13.816;2023-03-01T01:19:05;102915.00;;;16.32
53512;BMP280;39392;52.832;13.816;2023-03-01T01:21:32;102913.16;;;16.33
53512;BMP280;39392;52.832;13.816;2023-03-01T01:23:58;102914.03;;;16.33
53512;BMP280;39392;52.832;13.816;2023-03-01T01:26:29;102906.03;;;16.32
53512;BMP280;39392;52.832;13.816;2023-03-01T01:28:56;102909.72;;;16.31
53512;BMP280;39392;52.832;13.816;2023-03-01T01:31:23;102905.16;;;16.31
53512;BMP280;39392;52.832;13.816;2023-03-01T01:33:50;102901.59;;;16.31
53512;BMP280;39392;52.832;13.816;2023-03-01T01:36:16;102901.59;;;16.31
53512;BMP280;39392;52.832;13.816;2023-03-01T01:38:43;102904.38;;;16.29
53512;BMP280;39392;52.832;13.816;2023-03-01T01:41:10;102900.81;;;16.29
53512;BMP280;39392;52.832;13.816;2023-03-01T01:43:43;102902.66;;;16.28
53512;BMP280;39392;52.832;13.816;2023-03-01T01:49:39;102910.03;;;16.26
53512;BMP280;39392;52.832;13.816;2023-03-01T01:51:45;102910.03;;;16.26
53512;BMP280;39392;52.832;13.816;2023-03-01T01:54:16;102905.56;;;16.25
53512;BMP280;39392;52.832;13.816;2023-03-01T01:56:44;102907.41;;;16.25
53512;BMP280;39392;52.832;13.816;2023-03-01T01:59:13;102902.84;;;16.25
53512;BMP280;39392;52.832;13.816;2023-03-01T02:01:40;102896.59;;;16.25
53512;BMP280;39392;52.832;13.816;2023-03-01T02:04:06;102905.56;;;16.25
53512;BMP280;39392;52.832;13.816;2023-03-01T02:06:40;102902.97;;;16.24
53512;BMP280;39392;52.832;13.816;2023-03-01T02:09:10;102900.28;;;16.24
53512;BMP280;39392;52.832;13.816;2023-03-01T02:11:38;102913.81;;;16.24
53512;BMP280;39392;52.832;13.816;2023-03-01T02:14:05;102911.09;;;16.24
53512;BMP280;39392;52.832;13.816;2023-03-01T02:16:32;102905.81;;;16.22
53512;BMP280;39392;52.832;13.816;2023-03-01T02:18:59;102909.44;;;16.21
53512;BMP280;39392;52.832;13.816;2023-03-01T02:21:38;102904.91;;;16.22
53512;BMP280;39392;52.832;13.816;2023-03-01T02:24:31;102900.47;;;16.21
53512;BMP280;39392;52.832;13.816;2023-03-01T02:26:55;102908.50;;;16.22
53512;BMP280;39392;52.832;13.816;2023-03-01T02:29:22;102900.47;;;16.21
53512;BMP280;39392;52.832;13.816;2023-03-01T02:31:49;102898.75;;;16.19
53512;BMP280;39392;52.832;13.816;2023-03-01T02:34:20;102898.75;;;16.19
53512;BMP280;39392;52.832;13.816;2023-03-01T02:36:48;102894.31;;;16.18
53512;BMP280;39392;52.832;13.816;2023-03-01T02:39:17;102906.00;;;16.19
53512;BMP280;39392;52.832;13.816;2023-03-01T02:41:49;102912.38;;;16.18
53512;BMP280;39392;52.832;13.816;2023-03-01T02:44:16;102912.28;;;16.19
53512;BMP280;39392;52.832;13.816;2023-03-01T02:46:47;102905.13;;;16.18
53512;BMP280;39392;52.832;13.816;2023-03-01T02:49:24;102908.72;;;16.19
53512;BMP280;39392;52.832;13.816;2023-03-01T02:54:39;102904.16;;;16.19
53512;BMP280;39392;52.832;13.816;2023-03-01T02:57:06;102900.59;;;16.19
53512;BMP280;39392;52.832;13.816;2023-03-01T02:59:34;102905.03;;;16.20
53512;BMP280;39392;52.832;13.816;2023-03-01T03:02:06;102898.88;;;16.18
53512;BMP280;39392;52.832;13.816;2023-03-01T03:04:32;102904.16;;;16.19
53512;BMP280;39392;52.832;13.816;2023-03-01T03:06:59;102897.88;;;16.19
53512;BMP280;39392;52.832;13.816;2023-03-01T03:09:25;102898.88;;;16.18
53512;BMP280;39392;52.832;13.816;2023-03-01T03:11:52;102887.16;;;16.17
53512;BMP280;39392;52.832;13.816;2023-03-01T03:14:18;102887.25;;;16.16
53512;BMP280;39392;52.832;13.816;2023-03-01T03:16:46;102881.00;;;16.15
53512;BMP280;39392;52.832;13.816;2023-03-01T03:19:13;102883.69;;;16.15
53512;BMP280;39392;52.832;13.816;2023-03-01T03:21:39;102882.84;;;16.15
53512;BMP280;39392;52.832;13.816;2023-03-01T03:24:06;102884.69;;;16.14
53512;BMP280;39392;52.832;13.816;2023-03-01T03:26:32;102878.16;;;16.17
53512;BMP280;39392;52.832;13.816;2023-03-01T03:28:59;102875.59;;;16.15
53512;BMP280;39392;52.832;13.816;2023-03-01T03:31:25;102868.31;;;16.16
53512;BMP280;39392;52.832;13.816;2023-03-01T03:33:52;102870.16;;;16.15
53512;BMP280;39392;52.832;13.816;2023-03-01T03:36:20;102861.19;;;16.15
53512;BMP280;39392;52.832;13.816;2023-03-01T03:38:47;102862.16;;;16.14
53512;BMP280;39392;52.832;13.816;2023-03-01T03:41:13;102858.56;;;16.13
53512;BMP280;39392;52.832;13.816;2023-03-01T03:43:40;102855.97;;;16.12
53512;BMP280;39392;52.832;13.816;2023-03-01T03:46:09;102852.41;;;16.11
53512;BMP280;39392;52.832;13.816;2023-03-01T03:48:40;102850.69;;;16.10
53512;BMP280;39392;52.832;13.816;2023-03-01T03:51:10;102853.47;;;16.09
53512;BMP280;39392;52.832;13.816;2023-03-01T03:53:37;102847.22;;;16.08
53512;BMP280;39392;52.832;13.816;2023-03-01T03:56:03;102853.59;;;16.07
53512;BMP280;39392;52.832;13.816;2023-03-01T03:58:31;102847.44;;;16.05
53512;BMP280;39392;52.832;13.816;2023-03-01T04:00:58;102849.25;;;16.05
53512;BMP280;39392;52.832;13.816;2023-03-01T04:03:27;102843.09;;;16.03
53512;BMP280;39392;52.832;13.816;2023-03-01T04:05:54;102848.19;;;16.07
53512;BMP280;39392;52.832;13.816;2023-03-01T04:08:23;102828.59;;;16.16
53512;BMP280;39392;52.832;13.816;2023-03-01T04:10:50;102826.56;;;16.20
53512;BMP280;39392;52.832;13.816;2023-03-01T04:13:21;102835.34;;;16.24
53512;BMP280;39392;52.832;13.816;2023-03-01T04:15:48;102831.66;;;16.25
53512;BMP280;39392;52.832;13.816;2023-03-01T04:18:15;102834.25;;;16.26
53512;BMP280;39392;52.832;13.816;2023-03-01T04:20:43;102826.22;;;16.25
53512;BMP280;39392;52.832;13.816;2023-03-01T04:23:12;102827.09;;;16.25
53512;BMP280;39392;52.832;13.816;2023-03-01T04:25:40;102843.34;;;16.25
53512;BMP280;39392;52.832;13.816;2023-03-01T04:28:08;102842.59;;;16.23
53512;BMP280;39392;52.832;13.816;2023-03-01T04:30:35;102836.41;;;16.21
53512;BMP280;39392;52.832;13.816;2023-03-01T04:33:05;102852.63;;;16.21
53512;BMP280;39392;52.832;13.816;2023-03-01T04:35:32;102840.09;;;16.20
53512;BMP280;39392;52.832;13.816;2023-03-01T04:37:59;102837.59;;;16.17
53512;BMP280;39392;52.832;13.816;2023-03-01T04:40:25;102835.88;;;16.16
53512;BMP280;39392;52.832;13.816;2023-03-01T04:42:52;102839.44;;;16.16
53512;BMP280;39392;52.832;13.816;2023-03-01T04:45:18;102834.13;;;16.15
53512;BMP280;39392;52.832;13.816;2023-03-01T04:47:45;102833.28;;;16.14
53512;BMP280;39392;52.832;13.816;2023-03-01T04:50:13;102832.50;;;16.12
53512;BMP280;39392;52.832;13.816;2023-03-01T04:52:40;102827.94;;;16.13
53512;BMP280;39392;52.832;13.816;2023-03-01T04:55:07;102829.78;;;16.12
53512;BMP280;39392;52.832;13.816;2023-03-01T04:57:33;102843.25;;;16.14
53512;BMP280;39392;52.832;13.816;2023-03-01T05:00:00;102837.16;;;16.10
53512;BMP280;39392;52.832;13.816;2023-03-01T05:02:27;102829.78;;;16.12
53512;BMP280;39392;52.832;13.816;2023-03-01T05:04:53;102818.97;;;16.12
53512;BMP280;39392;52.832;13.816;2023-03-01T05:07:23;102818.13;;;16.12
53512;BMP280;39392;52.832;13.816;2023-03-01T05:09:51;102821.69;;;16.12
53512;BMP280;39392;52.832;13.816;2023-03-01T05:12:20;102820.94;;;16.10
53512;BMP280;39392;52.832;13.816;2023-03-01T05:14:46;102821.81;;;16.11
53512;BMP280;39392;52.832;13.816;2023-03-01T05:17:12;102812.03;;;16.08
53512;BMP280;39392;52.832;13.816;2023-03-01T05:19:39;102817.56;;;16.07
53512;BMP280;39392;52.832;13.816;2023-03-01T05:22:08;102815.84;;;16.06
53512;BMP280;39392;52.832;13.816;2023-03-01T05:24:35;102815.00;;;16.05
53512;BMP280;39392;52.832;13.816;2023-03-01T05:27:02;102813.16;;;16.06
53512;BMP280;39392;52.832;13.816;2023-03-01T05:29:29;102814.09;;;16.05
53512;BMP280;39392;52.832;13.816;2023-03-01T05:31:57;102810.44;;;16.06
53512;BMP280;39392;52.832;13.816;2023-03-01T05:34:25;102808.59;;;16.06
53512;BMP280;39392;52.832;13.816;2023-03-01T05:36:51;102815.00;;;16.05
53512;BMP280;39392;52.832;13.816;2023-03-01T05:39:22;102808.69;;;16.05
53512;BMP280;39392;52.832;13.816;2023-03-01T05:41:53;102815.94;;;16.04
53512;BMP280;39392;52.832;13.816;2023-03-01T05:44:20;102813.22;;;16.04
53512;BMP280;39392;52.832;13.816;2023-03-01T05:46:47;102817.78;;;16.04
53512;BMP280;39392;52.832;13.816;2023-03-01T05:49:13;102817.91;;;16.02
53512;BMP280;39392;52.832;13.816;2023-03-01T05:51:40;102820.69;;;16.01
53512;BMP280;39392;52.832;13.816;2023-03-01T05:54:07;102821.66;;;16.00
53512;BMP280;39392;52.832;13.816;2023-03-01T05:56:34;102821.66;;;16.00
53512;BMP280;39392;52.832;13.816;2023-03-01T05:59:01;102817.25;;;15.99
53512;BMP280;39392;52.832;13.816;2023-03-01T06:01:28;102819.06;;;15.98
53512;BMP280;39392;52.832;13.816;2023-03-01T06:03:55;102822.75;;;15.97
53512;BMP280;39392;52.832;13.816;2023-03-01T06:06:23;102828.19;;;15.97
53512;BMP280;39392;52.832;13.816;2023-03-01T06:08:50;102822.97;;;15.94
53512;BMP280;39392;52.832;13.816;2023-03-01T06:11:17;102822.84;;;15.96
53512;BMP280;39392;52.832;13.816;2023-03-01T06:13:43;102826.53;;;15.94
53512;BMP280;39392;52.832;13.816;2023-03-01T06:16:10;102816.56;;;15.95
53512;BMP280;39392;52.832;13.816;2023-03-01T06:18:37;102828.25;;;15.96
53512;BMP280;39392;52.832;13.816;2023-03-01T06:21:04;102830.09;;;15.95
53512;BMP280;39392;52.832;13.816;2023-03-01T06:23:31;102831.94;;;15.94
53512;BMP280;39392;52.832;13.816;2023-03-01T06:25:57;102839.00;;;15.97
53512;BMP280;39392;52.832;13.816;2023-03-01T06:28:24;102836.16;;;15.99
53512;BMP280;39392;52.832;13.816;2023-03-01T06:30:50;102836.84;;;16.02
53512;BMP280;39392;52.832;13.816;2023-03-01T06:33:18;102829.47;;;16.04
53512;BMP280;39392;52.832;13.816;2023-03-01T06:35:46;102828.41;;;16.07
53512;BMP280;39392;52.832;13.816;2023-03-01T06:38:13;102828.19;;;16.10
53512;BMP280;39392;52.832;13.816;2023-03-01T06:40:44;102834.22;;;16.13
53512;BMP280;39392;52.832;13.816;2023-03-01T06:43:11;102834.03;;;16.16
53512;BMP280;39392;52.832;13.816;2023-03-01T06:45:39;102829.38;;;16.18
53512;BMP280;39392;52.832;13.816;2023-03-01T06:48:06;102839.09;;;16.21
53512;BMP280;39392;52.832;13.816;2023-03-01T06:50:33;102838.78;;;16.26
53512;BMP280;39392;52.832;13.816;2023-03-01T06:53:00;102832.31;;;16.28
53512;BMP280;39392;52.832;13.816;2023-03-01T06:55:27;102835.78;;;16.30
53512;BMP280;39392;52.832;13.816;2023-03-01T06:58:03;102836.53;;;16.32
53512;BMP280;39392;52.832;13.816;2023-03-01T07:00:29;102838.16;;;16.35
53512;BMP280;39392;52.832;13.816;2023-03-01T07:02:59;102833.63;;;16.35
53512;BMP280;39392;52.832;13.816;2023-03-01T07:05:26;102830.59;;;16.40
53512;BMP280;39392;52.832;13.816;2023-03-01T07:07:53;102833.81;;;16.45
53512;BMP280;39392;52.832;13.816;2023-03-01T07:10:20;102840.00;;;16.47
53512;BMP280;39392;52.832;13.816;2023-03-01T07:12:46;102837.06;;;16.50
53512;BMP280;39392;52.832;13.816;2023-03-01T07:15:13;102836.00;;;16.53
53512;BMP280;39392;52.832;13.816;2023-03-01T07:17:41;102835.13;;;16.52
53512;BMP280;39392;52.832;13.816;2023-03-01T07:20:07;102847.56;;;16.55
53512;BMP280;39392;52.832;13.816;2023-03-01T07:22:34;102845.50;;;16.58
53512;BMP280;39392;52.832;13.816;2023-03-01T07:25:01;102844.44;;;16.61
53512;BMP280;39392;52.832;13.816;2023-03-01T07:27:27;102851.44;;;16.63
53512;BMP280;39392;52.832;13.816;2023-03-01T07:29:54;102835.97;;;16.65
53512;BMP280;39392;52.832;13.816;2023-03-01T07:32:20;102844.84;;;16.67
53512;BMP280;39392;52.832;13.816;2023-03-01T07:34:47;102835.66;;;16.70
53512;BMP280;39392;52.832;13.816;2023-03-01T07:37:13;102830.06;;;16.73
53512;BMP280;39392;52.832;13.816;2023-03-01T07:39:40;102833.50;;;16.75
53512;BMP280;39392;52.832;13.816;2023-03-01T07:42:06;102830.56;;;16.78
53512;BMP280;39392;52.832;13.816;2023-03-01T07:44:33;102833.16;;;16.80
53512;BMP280;39392;52.832;13.816;2023-03-01T07:47:00;102820.41;;;16.82
53512;BMP280;39392;52.832;13.816;2023-03-01T07:49:27;102831.00;;;16.85
53512;BMP280;39392;52.832;13.816;2023-03-01T07:51:53;102844.31;;;16.88
53512;BMP280;39392;52.832;13.816;2023-03-01T07:54:20;102833.38;;;16.89
53512;BMP280;39392;52.832;13.816;2023-03-01T07:56:46;102836.63;;;16.95
53512;BMP280;39392;52.832;13.816;2023-03-01T07:59:13;102833.56;;;16.99
53512;BMP280;39392;52.832;13.816;2023-03-01T08:01:39;102829.66;;;17.03
53512;BMP280;39392;52.832;13.816;2023-03-01T08:04:07;102824.88;;;17.07
53512;BMP280;39392;52.832;13.816;2023-03-01T08:06:34;102830.94;;;17.10
53512;BMP280;39392;52.832;13.816;2023-03-01T08:09:01;102826.91;;;17.16
53512;BMP280;39392;52.832;13.816;2023-03-01T08:11:28;102835.69;;;17.20
53512;BMP280;39392;52.832;13.816;2023-03-01T08:13:55;102830.91;;;17.23
53512;BMP280;39392;52.832;13.816;2023-03-01T08:16:21;102830.66;;;17.26
53512;BMP280;39392;52.832;13.816;2023-03-01T08:18:48;102828.72;;;17.28
53512;BMP280;39392;52.832;13.816;2023-03-01T08:21:15;102832.06;;;17.32
53512;BMP280;39392;52.832;13.816;2023-03-01T08:23:43;102823.72;;;17.35
53512;BMP280;39392;52.832;13.816;2023-03-01T08:26:11;102823.44;;;17.38
53512;BMP280;39392;52.832;13.816;2023-03-01T08:28:38;102819.66;;;17.40
53512;BMP280;39392;52.832;13.816;2023-03-01T08:31:15;102813.88;;;17.45
53512;BMP280;39392;52.832;13.816;2023-03-01T08:33:42;102807.38;;;17.48
53512;BMP280;39392;52.832;13.816;2023-03-01T08:36:08;102813.41;;;17.51
53512;BMP280;39392;52.832;13.816;2023-03-01T08:38:35;102816.66;;;17.56
53512;BMP280;39392;52.832;13.816;2023-03-01T08:41:02;102810.03;;;17.60
53512;BMP280;39392;52.832;13.816;2023-03-01T08:43:29;102799.78;;;17.64
53512;BMP280;39392;52.832;13.816;2023-03-01T08:45:55;102806.59;;;17.70
53512;BMP280;39392;52.832;13.816;2023-03-01T08:48:22;102797.25;;;17.74
53512;BMP280;39392;52.832;13.816;2023-03-01T08:50:48;102802.34;;;17.78
53512;BMP280;39392;52.832;13.816;2023-03-01T08:53:15;102793.13;;;17.81
53512;BMP280;39392;52.832;13.816;2023-03-01T08:55:41;102791.91;;;17.85
53512;BMP280;39392;52.832;13.816;2023-03-01T08:58:08;102798.69;;;17.90
53512;BMP280;39392;52.832;13.816;2023-03-01T09:00:34;102794.75;;;17.95
53512;BMP280;39392;52.832;13.816;2023-03-01T09:03:01;102788.09;;;17.99
53512;BMP280;39392;52.832;13.816;2023-03-01T09:05:27;102788.75;;;18.02
53512;BMP280;39392;52.832;13.816;2023-03-01T09:07:54;102794.78;;;18.06
53512;BMP280;39392;52.832;13.816;2023-03-01T09:10:21;102790.81;;;18.10
53512;BMP280;39392;52.832;13.816;2023-03-01T09:12:47;102789.59;;;18.14
53512;BMP280;39392;52.832;13.816;2023-03-01T09:15:14;102789.38;;;18.17
53512;BMP280;39392;52.832;13.816;2023-03-01T09:17:40;102785.44;;;18.21
53512;BMP280;39392;52.832;13.816;2023-03-01T09:20:07;102783.34;;;18.25
53512;BMP280;39392;52.832;13.816;2023-03-01T09:22:33;102782.25;;;18.27
53512;BMP280;39392;52.832;13.816;2023-03-01T09:25:00;102782.84;;;18.31
53512;BMP280;39392;52.832;13.816;2023-03-01T09:27:27;102790.75;;;18.34
53512;BMP280;39392;52.832;13.816;2023-03-01T09:29:54;102788.78;;;18.36
53512;BMP280;39392;52.832;13.816;2023-03-01T09:32:22;102795.81;;;18.38
53512;BMP280;39392;52.832;13.816;2023-03-01T09:34:48;102779.50;;;18.38
53512;BMP280;39392;52.832;13.816;2023-03-01T09:37:30;102782.84;;;18.42
53512;BMP280;39392;52.832;13.816;2023-03-01T09:39:57;102784.47;;;18.45
53512;BMP280;39392;52.832;13.816;2023-03-01T09:42:23;102786.19;;;18.46
53512;BMP280;39392;52.832;13.816;2023-03-01T09:44:54;102771.50;;;18.48
53512;BMP280;39392;52.832;13.816;2023-03-01T09:47:25;102772.38;;;18.49
53512;BMP280;39392;52.832;13.816;2023-03-01T09:52:42;102779.16;;;18.54
53512;BMP280;39392;52.832;13.816;2023-03-01T09:55:13;102783.59;;;18.55
53512;BMP280;39392;52.832;13.816;2023-03-01T09:57:48;102774.47;;;18.56
53512;BMP280;39392;52.832;13.816;2023-03-01T10:05:15;102773.09;;;18.62
53512;BMP280;39392;52.832;13.816;2023-03-01T10:07:53;102779.41;;;18.62
53512;BMP280;39392;52.832;13.816;2023-03-01T10:10:31;102774.72;;;18.64
53512;BMP280;39392;52.832;13.816;2023-03-01T10:13:00;102767.28;;;18.66
53512;BMP280;39392;52.832;13.816;2023-03-01T10:15:34;102764.44;;;18.68
53512;BMP280;39392;52.832;13.816;2023-03-01T10:18:16;102764.38;;;18.70
53512;BMP280;39392;52.832;13.816;2023-03-01T10:20:46;102764.22;;;18.71
53512;BMP280;39392;52.832;13.816;2023-03-01T10:23:14;102759.56;;;18.73
53512;BMP280;39392;52.832;13.816;2023-03-01T10:25:47;102755.72;;;18.76
53512;BMP280;39392;52.832;13.816;2023-03-01T10:28:26;102752.00;;;18.77
53512;BMP280;39392;52.832;13.816;2023-03-01T10:30:57;102749.16;;;18.78
53512;BMP280;39392;52.832;13.816;2023-03-01T10:33:28;102749.03;;;18.80
53512;BMP280;39392;52.832;13.816;2023-03-01T10:35:55;102748.94;;;18.81
53512;BMP280;39392;52.832;13.816;2023-03-01T10:38:22;102741.63;;;18.82
53512;BMP280;39392;52.832;13.816;2023-03-01T10:40:53;102752.22;;;18.85
53512;BMP280;39392;52.832;13.816;2023-03-01T10:43:20;102744.97;;;18.85
53512;BMP280;39392;52.832;13.816;2023-03-01T10:45:47;102739.41;;;18.87
53512;BMP280;39392;52.832;13.816;2023-03-01T10:50:40;102738.00;;;18.92
53512;BMP280;39392;52.832;13.816;2023-03-01T10:53:18;102730.63;;;18.95
53512;BMP280;39392;52.832;13.816;2023-03-01T10:55:46;102734.06;;;18.97
53512;BMP280;39392;52.832;13.816;2023-03-01T11:00:46;102725.91;;;18.97
53512;BMP280;39392;52.832;13.816;2023-03-01T11:03:14;102728.50;;;18.98
53512;BMP280;39392;52.832;13.816;2023-03-01T11:05:51;102733.94;;;18.98
53512;BMP280;39392;52.832;13.816;2023-03-01T11:13:52;102726.38;;;19.02
53512;BMP280;39392;52.832;13.816;2023-03-01T11:16:35;102727.25;;;19.02
53512;BMP280;39392;52.832;13.816;2023-03-01T11:21:36;102712.66;;;19.03
53512;BMP280;39392;52.832;13.816;2023-03-01T11:24:03;102720.81;;;19.03
53512;BMP280;39392;52.832;13.816;2023-03-01T11:26:32;102717.13;;;19.04
53512;BMP280;39392;52.832;13.816;2023-03-01T11:29:02;102716.25;;;19.04
53512;BMP280;39392;52.832;13.816;2023-03-01T11:31:30;102716.97;;;19.06
53512;BMP280;39392;52.832;13.816;2023-03-01T11:36:32;102708.81;;;19.06
53512;BMP280;39392;52.832;13.816;2023-03-01T11:39:10;102702.41;;;19.07
53512;BMP280;39392;52.832;13.816;2023-03-01T11:41:39;102697.84;;;19.07
53512;BMP280;39392;52.832;13.816;2023-03-01T12:00:02;102697.59;;;19.10
53512;BMP280;39392;52.832;13.816;2023-03-01T12:02:39;102691.25;;;19.10
53512;BMP280;39392;52.832;13.816;2023-03-01T12:07:46;102680.38;;;19.10
53512;BMP280;39392;52.832;13.816;2023-03-01T12:10:23;102682.25;;;19.09
53512;BMP280;39392;52.832;13.816;2023-03-01T12:15:42;102674.94;;;19.10
53512;BMP280;39392;52.832;13.816;2023-03-01T12:18:22;102678.56;;;19.10
53512;BMP280;39392;52.832;13.816;2023-03-01T12:23:33;102676.81;;;19.09
53512;BMP280;39392;52.832;13.816;2023-03-01T12:26:13;102673.13;;;19.10
53512;BMP280;39392;52.832;13.816;2023-03-01T12:28:55;102672.13;;;19.11
53512;BMP280;39392;52.832;13.816;2023-03-01T12:33:57;102665.69;;;19.12
53512;BMP280;39392;52.832;13.816;2023-03-01T12:47:22;102634.31;;;19.08
53512;BMP280;39392;52.832;13.816;2023-03-01T12:49:56;102636.91;;;19.10
53512;BMP280;39392;52.832;13.816;2023-03-01T12:52:28;102626.19;;;19.08
53512;BMP280;39392;52.832;13.816;2023-03-01T12:54:59;102619.88;;;19.08
53512;BMP280;39392;52.832;13.816;2023-03-01T12:57:32;102625.31;;;19.08
53512;BMP280;39392;52.832;13.816;2023-03-01T13:02:42;102616.31;;;19.07
53512;BMP280;39392;52.832;13.816;2023-03-01T13:13:19;102614.59;;;19.06
53512;BMP280;39392;52.832;13.816;2023-03-01T13:15:45;102611.97;;;19.05
53512;BMP280;39392;52.832;13.816;2023-03-01T13:20:52;102597.78;;;19.01
53512;BMP280;39392;52.832;13.816;2023-03-01T13:31:10;102583.34;;;19.01
53512;BMP280;39392;52.832;13.816;2023-03-01T13:33:41;102586.06;;;19.01
53512;BMP280;39392;52.832;13.816;2023-03-01T13:36:11;102572.47;;;19.01
53512;BMP280;39392;52.832;13.816;2023-03-01T13:38:47;102574.19;;;19.02
53512;BMP280;39392;52.832;13.816;2023-03-01T13:41:14;102577.81;;;19.02
53512;BMP280;39392;52.832;13.816;2023-03-01T13:43:42;102570.63;;;19.01
53512;BMP280;39392;52.832;13.816;2023-03-01T13:46:16;102563.47;;;19.00
53512;BMP280;39392;52.832;13.816;2023-03-01T13:48:45;102570.75;;;19.00
53512;BMP280;39392;52.832;13.816;2023-03-01T13:51:13;102561.75;;;18.99
53512;BMP280;39392;52.832;13.816;2023-03-01T13:53:41;102564.59;;;18.98
53512;BMP280;39392;52.832;13.816;2023-03-01T13:56:10;102562.00;;;18.96
53512;BMP280;39392;52.832;13.816;2023-03-01T13:58:52;102563.88;;;18.96
53512;BMP280;39392;52.832;13.816;2023-03-01T14:01:24;102560.44;;;18.94
53512;BMP280;39392;52.832;13.816;2023-03-01T14:03:51;102555.13;;;18.92
53512;BMP280;39392;52.832;13.816;2023-03-01T14:06:31;102555.25;;;18.90
53512;BMP280;39392;52.832;13.816;2023-03-01T14:09:05;102548.97;;;18.90
53512;BMP280;39392;52.832;13.816;2023-03-01T14:19:16;102539.59;;;18.83
53512;BMP280;39392;52.832;13.816;2023-03-01T14:21:58;102536.03;;;18.82
53512;BMP280;39392;52.832;13.816;2023-03-01T14:24:29;102535.28;;;18.80
53512;BMP280;39392;52.832;13.816;2023-03-01T14:27:00;102530.84;;;18.79
53512;BMP280;39392;52.832;13.816;2023-03-01T14:29:27;102538.16;;;18.79
53512;BMP280;39392;52.832;13.816;2023-03-01T14:32:08;102529.25;;;18.77
53512;BMP280;39392;52.832;13.816;2023-03-01T14:34:34;102534.69;;;18.77
53512;BMP280;39392;52.832;13.816;2023-03-01T14:37:11;102527.69;;;18.74
53512;BMP280;39392;52.832;13.816;2023-03-01T14:39:37;102522.25;;;18.74
53512;BMP280;39392;52.832;13.816;2023-03-01T14:42:04;102519.63;;;18.73
53512;BMP280;39392;52.832;13.816;2023-03-01T14:44:45;102519.63;;;18.73
53512;BMP280;39392;52.832;13.816;2023-03-01T14:47:17;102531.50;;;18.72
53512;BMP280;39392;52.832;13.816;2023-03-01T14:49:46;102520.78;;;18.70
53512;BMP280;39392;52.832;13.816;2023-03-01T14:52:18;102519.94;;;18.70
53512;BMP280;39392;52.832;13.816;2023-03-01T14:54:47;102515.47;;;18.69
53512;BMP280;39392;52.832;13.816;2023-03-01T14:57:16;102504.72;;;18.67
53512;BMP280;39392;52.832;13.816;2023-03-01T14:59:43;102508.28;;;18.67
53512;BMP280;39392;52.832;13.816;2023-03-01T15:02:13;102511.28;;;18.64
53512;BMP280;39392;52.832;13.816;2023-03-01T15:04:45;102506.72;;;18.65
53512;BMP280;39392;52.832;13.816;2023-03-01T15:07:12;102509.53;;;18.63
53512;BMP280;39392;52.832;13.816;2023-03-01T15:09:40;102515.97;;;18.62
53512;BMP280;39392;52.832;13.816;2023-03-01T15:14:52;102512.66;;;18.59
53512;BMP280;39392;52.832;13.816;2023-03-01T15:17:34;102509.94;;;18.59
53512;BMP280;39392;52.832;13.816;2023-03-01T15:20:03;102508.22;;;18.58
53512;BMP280;39392;52.832;13.816;2023-03-01T15:22:30;102507.34;;;18.57
53512;BMP280;39392;52.832;13.816;2023-03-01T15:24:57;102501.78;;;18.59
53512;BMP280;39392;52.832;13.816;2023-03-01T15:27:24;102505.34;;;18.59
53512;BMP280;39392;52.832;13.816;2023-03-01T15:29:55;102497.22;;;18.59